createdAt,value
2023-04-20T00:00:35.394Z,3.30
2023-04-20T00:02:38.441Z,3.03
2023-04-20T00:04:41.317Z,3.35
2023-04-20T00:06:44.670Z,3.03
2023-04-20T00:08:47.279Z,3.05
2023-04-20T00:10:49.890Z,2.90
2023-04-20T00:12:52.498Z,2.85
2023-04-20T00:14:55.167Z,3.22
2023-04-20T00:16:59.135Z,3.63
2023-04-20T00:19:02.090Z,3.40
2023-04-20T00:21:04.988Z,3.30
2023-04-20T00:23:08.161Z,3.13
2023-04-20T00:25:11.304Z,3.20
2023-04-20T00:27:13.878Z,3.17
2023-04-20T00:29:16.668Z,3.50
2023-04-20T00:31:19.728Z,3.10
2023-04-20T00:33:23.855Z,2.92
2023-04-20T00:35:26.556Z,3.20
2023-04-20T00:37:29.272Z,3.15
2023-04-20T00:39:31.968Z,3.08
2023-04-20T00:41:34.688Z,3.40
2023-04-20T00:43:37.546Z,3.10
2023-04-20T00:45:40.465Z,3.58
2023-04-20T00:47:43.089Z,4.00
2023-04-20T00:49:47.144Z,3.30
2023-04-20T00:51:49.730Z,3.15
2023-04-20T00:53:52.453Z,2.85
2023-04-20T00:55:55.761Z,3.67
2023-04-20T00:57:58.469Z,3.40
2023-04-20T01:00:01.385Z,3.03
2023-04-20T01:02:04.271Z,3.38
2023-04-20T01:04:07.870Z,3.25
2023-04-20T01:06:12.863Z,3.10
2023-04-20T01:08:15.664Z,3.47
2023-04-20T01:10:18.391Z,3.08
2023-04-20T01:12:21.035Z,3.30
2023-04-20T01:14:23.692Z,3.30
2023-04-20T01:16:26.484Z,3.47
2023-04-20T01:18:29.165Z,3.08
2023-04-20T01:20:33.781Z,3.22
2023-04-20T01:22:45.026Z,3.22
2023-04-20T01:24:48.177Z,3.35
2023-04-20T01:26:50.801Z,3.08
2023-04-20T01:28:53.615Z,3.30
2023-04-20T01:30:56.180Z,3.10
2023-04-20T01:32:58.802Z,3.90
2023-04-20T01:35:01.927Z,3.38
2023-04-20T01:37:08.030Z,3.30
2023-04-20T01:39:14.965Z,3.20
2023-04-20T01:41:17.693Z,3.70
2023-04-20T01:43:21.110Z,3.80
2023-04-20T01:45:23.748Z,3.42
2023-04-20T01:47:26.529Z,3.28
2023-04-20T01:49:29.223Z,3.33
2023-04-20T01:51:32.948Z,3.90
2023-04-20T01:53:35.564Z,3.80
2023-04-20T01:55:39.866Z,3.78
2023-04-20T01:57:44.537Z,3.38
2023-04-20T01:59:47.367Z,3.08
2023-04-20T02:01:50.082Z,3.55
2023-04-20T02:03:53.012Z,3.28
2023-04-20T02:05:55.895Z,3.47
2023-04-20T02:07:58.660Z,3.80
2023-04-20T02:10:01.336Z,3.47
2023-04-20T02:12:06.104Z,4.10
2023-04-20T02:14:08.907Z,3.53
2023-04-20T02:16:11.780Z,4.07
2023-04-20T02:18:16.093Z,3.75
2023-04-20T02:20:19.784Z,4.03
2023-04-20T02:22:22.394Z,3.22
2023-04-20T02:24:25.136Z,3.40
2023-04-20T02:26:27.948Z,4.00
2023-04-20T02:28:31.982Z,4.05
2023-04-20T02:30:34.667Z,3.85
2023-04-20T02:32:37.407Z,3.70
2023-04-20T02:34:40.106Z,3.88
2023-04-20T02:36:42.749Z,3.85
2023-04-20T02:38:45.470Z,4.22
2023-04-20T02:40:48.153Z,3.78
2023-04-20T02:42:50.811Z,3.97
2023-04-20T02:44:54.856Z,4.05
2023-04-20T02:46:57.574Z,4.22
2023-04-20T02:49:00.729Z,4.47
2023-04-20T02:51:03.423Z,4.38
2023-04-20T02:53:06.238Z,3.97
2023-04-20T02:55:09.462Z,3.97
2023-04-20T02:57:12.244Z,4.80
2023-04-20T02:59:15.060Z,4.28
2023-04-20T03:01:19.258Z,4.07
2023-04-20T03:03:22.050Z,4.05
2023-04-20T03:05:25.043Z,4.13
2023-04-20T03:07:27.773Z,3.80
2023-04-20T03:09:30.558Z,4.35
2023-04-20T03:11:33.220Z,4.32
2023-04-20T03:13:36.211Z,4.75
2023-04-20T03:15:38.962Z,4.20
2023-04-20T03:17:43.186Z,3.80
2023-04-20T03:19:46.465Z,4.22
2023-04-20T03:21:49.113Z,4.25
2023-04-20T03:23:51.690Z,4.30
2023-04-20T03:25:54.632Z,4.30
2023-04-20T03:27:57.272Z,4.28
2023-04-20T03:30:00.373Z,4.40
2023-04-20T03:32:03.110Z,4.30
2023-04-20T03:34:07.226Z,4.28
2023-04-20T03:36:10.307Z,4.45
2023-04-20T03:38:12.929Z,3.92
2023-04-20T03:40:15.765Z,4.30
2023-04-20T03:42:19.534Z,4.05
2023-04-20T03:44:22.242Z,4.35
2023-04-20T03:46:25.087Z,4.35
2023-04-20T03:48:27.919Z,4.70
2023-04-20T03:50:32.140Z,4.57
2023-04-20T03:52:34.947Z,4.35
2023-04-20T03:54:37.589Z,4.05
2023-04-20T03:56:40.365Z,4.15
2023-04-20T03:58:43.024Z,4.40
2023-04-20T04:00:45.674Z,4.30
2023-04-20T04:02:49.298Z,4.32
2023-04-20T04:04:52.333Z,4.22
2023-04-20T04:06:56.402Z,4.82
2023-04-20T04:08:59.159Z,4.25
2023-04-20T04:11:01.790Z,4.75
2023-04-20T04:13:04.404Z,4.38
2023-04-20T04:15:08.476Z,4.25
2023-04-20T04:17:11.190Z,4.35
2023-04-20T04:19:13.837Z,4.50
2023-04-20T04:21:16.502Z,4.22
2023-04-20T04:23:20.653Z,4.38
2023-04-20T04:25:23.551Z,4.53
2023-04-20T04:27:29.732Z,4.53
2023-04-20T04:29:38.448Z,4.40
2023-04-20T04:31:44.773Z,4.55
2023-04-20T04:33:48.289Z,4.60
2023-04-20T04:35:50.987Z,4.70
2023-04-20T04:37:54.068Z,4.53
2023-04-20T04:39:58.497Z,4.63
2023-04-20T04:42:02.529Z,4.30
2023-04-20T04:44:07.037Z,4.97
2023-04-20T04:46:10.831Z,4.55
2023-04-20T04:48:14.166Z,4.47
2023-04-20T04:50:17.140Z,4.72
2023-04-20T04:52:19.789Z,4.65
2023-04-20T04:54:22.410Z,4.65
2023-04-20T04:56:26.462Z,4.70
2023-04-20T04:58:29.182Z,5.20
2023-04-20T05:00:32.496Z,4.55
2023-04-20T05:02:35.388Z,4.47
2023-04-20T05:04:38.337Z,4.53
2023-04-20T05:06:41.039Z,4.20
2023-04-20T05:08:44.357Z,4.20
2023-04-20T05:10:47.212Z,4.43
2023-04-20T05:12:52.408Z,4.43
2023-04-20T05:14:55.051Z,5.00
2023-04-20T05:16:57.781Z,4.75
2023-04-20T05:19:00.486Z,4.53
2023-04-20T05:21:03.270Z,4.80
2023-04-20T05:23:07.133Z,4.97
2023-04-20T05:25:12.616Z,4.40
2023-04-20T05:27:16.460Z,4.38
2023-04-20T05:29:21.000Z,5.05
2023-04-20T05:31:23.794Z,4.45
2023-04-20T05:33:27.673Z,4.78
2023-04-20T05:35:30.764Z,4.80
2023-04-20T05:37:34.157Z,4.50
2023-04-20T05:39:36.794Z,4.45
2023-04-20T05:41:40.873Z,4.72
2023-04-20T05:43:43.463Z,5.07
2023-04-20T05:45:47.673Z,4.45
2023-04-20T05:47:54.342Z,5.13
2023-04-20T05:49:57.103Z,4.97
2023-04-20T05:51:59.852Z,4.55
2023-04-20T05:54:02.610Z,4.93
2023-04-20T05:56:06.141Z,4.28
2023-04-20T05:58:08.804Z,4.57
2023-04-20T06:00:13.448Z,5.10
2023-04-20T06:02:17.506Z,5.30
2023-04-20T06:04:20.540Z,4.78
2023-04-20T06:06:23.550Z,5.18
2023-04-20T06:08:26.320Z,4.63
2023-04-20T06:10:32.274Z,5.25
2023-04-20T06:12:34.971Z,4.88
2023-04-20T06:14:37.676Z,5.07
2023-04-20T06:16:40.331Z,4.40
2023-04-20T06:18:44.314Z,4.63
2023-04-20T06:20:47.088Z,5.32
2023-04-20T06:22:50.086Z,6.07
2023-04-20T06:24:52.695Z,5.20
2023-04-20T06:26:55.356Z,5.15
2023-04-20T06:28:57.968Z,5.25
2023-04-20T06:31:00.657Z,4.75
2023-04-20T06:33:04.010Z,4.88
2023-04-20T06:35:09.325Z,4.93
2023-04-20T06:37:12.022Z,4.43
2023-04-20T06:39:14.606Z,5.15
2023-04-20T06:41:17.184Z,4.63
2023-04-20T06:43:19.835Z,4.55
2023-04-20T06:45:22.540Z,3.92
2023-04-20T06:47:31.338Z,4.53
2023-04-20T06:49:34.150Z,4.35
2023-04-20T06:51:38.206Z,4.50
2023-04-20T06:53:40.866Z,5.00
2023-04-20T06:55:43.694Z,4.40
2023-04-20T06:57:46.400Z,4.47
2023-04-20T06:59:49.024Z,4.85
2023-04-20T07:01:52.005Z,4.22
2023-04-20T07:03:55.191Z,4.80
2023-04-20T07:05:58.152Z,4.90
2023-04-20T07:08:02.281Z,5.85
2023-04-20T07:10:05.597Z,4.57
2023-04-20T07:12:08.341Z,4.53
2023-04-20T07:14:10.976Z,4.20
2023-04-20T07:16:14.369Z,4.30
2023-04-20T07:18:16.990Z,5.15
2023-04-20T07:20:19.677Z,5.10
2023-04-20T07:22:22.336Z,4.53
2023-04-20T07:24:26.308Z,4.82
2023-04-20T07:26:28.946Z,5.25
2023-04-20T07:28:31.655Z,5.40
2023-04-20T07:30:34.378Z,4.95
2023-04-20T07:32:38.353Z,4.82
2023-04-20T07:34:41.177Z,4.90
2023-04-20T07:36:44.166Z,5.70
2023-04-20T07:38:46.974Z,4.80
2023-04-20T07:40:51.049Z,4.97
2023-04-20T07:42:53.711Z,5.28
2023-04-20T07:44:56.358Z,5.38
2023-04-20T07:46:58.973Z,4.88
2023-04-20T07:49:01.636Z,5.18
2023-04-20T07:51:04.746Z,4.75
2023-04-20T07:53:07.347Z,5.10
2023-04-20T07:55:11.957Z,5.53
2023-04-20T07:57:16.663Z,6.00
2023-04-20T07:59:19.494Z,5.30
2023-04-20T08:01:25.106Z,6.22
2023-04-20T08:03:29.095Z,5.47
2023-04-20T08:05:32.306Z,5.75
2023-04-20T08:07:35.237Z,6.47
2023-04-20T08:09:38.222Z,6.05
2023-04-20T08:11:41.128Z,6.53
2023-04-20T08:13:45.302Z,6.57
2023-04-20T08:15:48.048Z,5.95
2023-04-20T08:17:51.123Z,6.63
2023-04-20T08:19:53.777Z,6.72
2023-04-20T08:21:56.790Z,6.75
2023-04-20T08:23:59.464Z,7.55
2023-04-20T08:26:02.124Z,6.88
2023-04-20T08:28:08.704Z,6.38
2023-04-20T08:30:13.711Z,6.60
2023-04-20T08:32:18.518Z,7.15
2023-04-20T08:34:21.497Z,7.00
2023-04-20T08:36:24.595Z,6.07
2023-04-20T08:38:33.817Z,6.35
2023-04-20T08:40:37.653Z,6.38
2023-04-20T08:42:40.407Z,6.03
2023-04-20T08:44:44.448Z,6.22
2023-04-20T08:46:50.161Z,6.15
2023-04-20T08:48:55.770Z,6.10
2023-04-20T08:50:58.669Z,6.30
2023-04-20T08:53:03.322Z,5.95
2023-04-20T08:55:07.532Z,6.70
2023-04-20T08:57:10.278Z,6.20
2023-04-20T08:59:14.408Z,6.15
2023-04-20T09:01:22.709Z,6.07
2023-04-20T09:03:37.019Z,6.30
2023-04-20T09:05:39.974Z,6.75
2023-04-20T09:07:52.681Z,5.93
2023-04-20T09:09:56.211Z,5.68
2023-04-20T09:12:03.497Z,6.45
2023-04-20T09:14:09.968Z,6.65
2023-04-20T09:16:13.598Z,6.28
2023-04-20T09:18:17.494Z,6.72
2023-04-20T09:20:30.217Z,6.75
2023-04-20T09:22:34.411Z,7.18
2023-04-20T09:24:38.643Z,6.55
2023-04-20T09:26:41.384Z,7.15
2023-04-20T09:28:44.099Z,6.45
2023-04-20T09:30:48.584Z,5.95
2023-04-20T09:33:02.183Z,6.93
2023-04-20T09:35:06.743Z,6.53
2023-04-20T09:37:11.470Z,7.03
2023-04-20T09:39:17.351Z,6.53
2023-04-20T09:41:20.012Z,7.35
2023-04-20T09:43:25.576Z,6.13
2023-04-20T09:45:30.031Z,6.53
2023-04-20T09:47:36.850Z,6.43
2023-04-20T09:51:45.175Z,6.32
2023-04-20T09:53:51.676Z,6.07
2023-04-20T09:55:56.181Z,6.22
2023-04-20T09:57:59.058Z,6.25
2023-04-20T10:00:04.805Z,6.95
2023-04-20T10:02:09.631Z,7.18
2023-04-20T10:04:14.440Z,6.78
2023-04-20T10:06:24.485Z,6.43
2023-04-20T10:08:27.294Z,6.50
2023-04-20T10:10:31.320Z,6.38
2023-04-20T10:12:36.914Z,7.28
2023-04-20T10:14:39.604Z,6.78
2023-04-20T10:16:43.098Z,6.45
2023-04-20T10:18:57.412Z,7.78
2023-04-20T10:21:09.404Z,6.72
2023-04-20T10:23:14.363Z,7.50
2023-04-20T10:25:19.347Z,6.43
2023-04-20T10:27:23.551Z,6.53
2023-04-20T10:29:26.936Z,6.28
2023-04-20T10:31:37.204Z,6.07
2023-04-20T10:33:53.107Z,6.25
2023-04-20T10:35:58.905Z,6.32
2023-04-20T10:38:01.679Z,6.72
2023-04-20T10:40:07.638Z,7.07
2023-04-20T10:42:10.712Z,7.40
2023-04-20T10:44:14.988Z,6.80
2023-04-20T10:46:18.845Z,8.20
2023-04-20T10:48:21.785Z,7.85
2023-04-20T10:50:27.767Z,6.70
2023-04-20T10:52:34.494Z,7.05
2023-04-20T10:56:41.764Z,7.47
2023-04-20T10:58:44.389Z,8.23
2023-04-20T11:00:58.420Z,7.47
2023-04-20T11:03:01.162Z,7.57
2023-04-20T11:05:12.563Z,7.00
2023-04-20T11:07:15.298Z,7.55
2023-04-20T11:09:20.306Z,7.80
2023-04-20T11:11:27.442Z,7.28
2023-04-20T11:13:30.776Z,6.72
2023-04-20T11:15:33.800Z,6.60
2023-04-20T11:17:39.721Z,6.30
2023-04-20T11:19:42.466Z,5.88
2023-04-20T11:21:45.189Z,5.68
2023-04-20T11:23:48.207Z,6.28
2023-04-20T11:25:53.464Z,6.45
2023-04-20T11:28:06.387Z,6.15
2023-04-20T11:30:10.066Z,6.32
2023-04-20T11:32:12.919Z,6.30
2023-04-20T11:34:19.689Z,5.88
2023-04-20T11:36:22.988Z,6.53
2023-04-20T11:38:30.975Z,6.40
2023-04-20T11:40:34.070Z,5.45
2023-04-20T11:42:36.785Z,6.18
2023-04-20T11:44:41.263Z,7.13
2023-04-20T11:46:44.807Z,6.30
2023-04-20T11:48:49.024Z,7.30
2023-04-20T11:50:53.015Z,7.07
2023-04-20T11:52:55.630Z,7.97
2023-04-20T11:54:58.294Z,6.63
2023-04-20T11:57:01.190Z,7.15
2023-04-20T11:59:04.043Z,6.68
2023-04-20T12:01:06.767Z,7.47
2023-04-20T12:03:09.580Z,6.47
2023-04-20T12:05:12.618Z,7.43
2023-04-20T12:07:16.955Z,6.95
2023-04-20T12:09:19.664Z,6.82
2023-04-20T12:11:22.591Z,7.05
2023-04-20T12:13:25.567Z,7.15
2023-04-20T12:15:28.408Z,6.97
2023-04-20T12:17:31.124Z,7.07
2023-04-20T12:19:34.107Z,7.20
2023-04-20T12:21:36.901Z,6.78
2023-04-20T12:23:40.932Z,6.75
2023-04-20T12:25:44.057Z,7.38
2023-04-20T12:27:48.145Z,6.72
2023-04-20T12:29:52.609Z,5.68
2023-04-20T12:31:55.700Z,6.55
2023-04-20T12:33:58.423Z,6.20
2023-04-20T12:36:01.113Z,5.93
2023-04-20T12:38:03.835Z,6.30
2023-04-20T12:40:10.122Z,7.03
2023-04-20T12:42:12.818Z,7.00
2023-04-20T12:44:15.427Z,6.25
2023-04-20T12:46:18.359Z,5.70
2023-04-20T12:48:21.089Z,6.55
2023-04-20T12:50:23.764Z,6.68
2023-04-20T12:52:26.382Z,6.10
2023-04-20T12:54:29.001Z,6.25
2023-04-20T12:56:33.040Z,6.18
2023-04-20T12:58:35.833Z,6.75
2023-04-20T13:00:38.543Z,5.78
2023-04-20T13:02:41.683Z,6.32
2023-04-20T13:04:44.526Z,6.38
2023-04-20T13:06:47.163Z,5.35
2023-04-20T13:08:50.434Z,5.97
2023-04-20T13:10:53.320Z,5.70
2023-04-20T13:12:57.864Z,5.35
2023-04-20T13:15:00.632Z,5.63
2023-04-20T13:17:03.262Z,5.97
2023-04-20T13:19:05.917Z,5.60
2023-04-20T13:21:09.228Z,5.78
2023-04-20T13:23:11.933Z,6.07
2023-04-20T13:25:14.609Z,5.65
2023-04-20T13:27:17.281Z,4.82
2023-04-20T13:29:21.224Z,4.80
2023-04-20T13:31:24.178Z,5.70
2023-04-20T13:33:26.936Z,5.72
2023-04-20T13:35:29.708Z,5.10
2023-04-20T13:37:33.195Z,5.03
2023-04-20T13:39:36.047Z,5.25
2023-04-20T13:41:39.570Z,6.25
2023-04-20T13:43:42.253Z,5.53
2023-04-20T13:45:46.501Z,5.10
2023-04-20T13:47:49.280Z,5.00
2023-04-20T13:49:51.998Z,5.25
2023-04-20T13:51:55.343Z,5.85
2023-04-20T13:53:57.962Z,6.10
2023-04-20T13:56:00.948Z,5.80
2023-04-20T13:58:03.642Z,5.30
2023-04-20T14:00:07.915Z,5.00
2023-04-20T14:02:12.044Z,5.70
2023-04-20T14:04:16.874Z,5.72
2023-04-20T14:06:19.805Z,5.32
2023-04-20T14:08:23.386Z,6.10
2023-04-20T14:10:26.165Z,5.75
2023-04-20T14:12:28.983Z,5.50
2023-04-20T14:14:31.724Z,5.95
2023-04-20T14:16:34.461Z,6.15
2023-04-20T14:18:39.137Z,6.22
2023-04-20T14:20:41.839Z,5.95
2023-04-20T14:22:44.557Z,5.93
2023-04-20T14:24:47.858Z,6.28
2023-04-20T14:26:52.305Z,5.28
2023-04-20T14:28:55.373Z,6.10
2023-04-20T14:30:58.100Z,6.40
2023-04-20T14:33:01.523Z,6.00
2023-04-20T14:35:06.214Z,6.07
2023-04-20T14:37:09.721Z,5.63
2023-04-20T14:39:12.428Z,6.78
2023-04-20T14:41:16.174Z,6.13
2023-04-20T14:43:19.017Z,6.18
2023-04-20T14:45:21.984Z,7.18
2023-04-20T14:47:24.618Z,6.45
2023-04-20T14:49:27.257Z,6.70
2023-04-20T14:51:32.295Z,5.78
2023-04-20T14:53:34.957Z,6.15
2023-04-20T14:55:37.691Z,6.30
2023-04-20T14:57:40.512Z,6.82
2023-04-20T14:59:43.169Z,6.78
2023-04-20T15:01:55.308Z,6.53
2023-04-20T15:04:04.433Z,7.22
2023-04-20T15:06:07.933Z,6.82
2023-04-20T15:08:12.253Z,6.90
2023-04-20T15:10:14.924Z,7.63
2023-04-20T15:12:17.566Z,6.55
2023-04-20T15:14:21.175Z,7.70
2023-04-20T15:16:24.131Z,8.00
2023-04-20T15:18:26.820Z,8.02
2023-04-20T15:20:29.441Z,7.28
2023-04-20T15:22:32.153Z,7.50
2023-04-20T15:24:36.149Z,7.82
2023-04-20T15:26:38.879Z,7.22
2023-04-20T15:28:41.574Z,7.63
2023-04-20T15:30:44.354Z,8.05
2023-04-20T15:32:47.089Z,7.93
2023-04-20T15:34:50.198Z,7.97
2023-04-20T15:36:52.898Z,8.05
2023-04-20T15:38:57.704Z,7.82
2023-04-20T15:41:02.119Z,7.18
2023-04-20T15:43:04.856Z,8.00
2023-04-20T15:45:08.641Z,8.00
2023-04-20T15:47:11.774Z,7.53
2023-04-20T15:49:14.391Z,7.78
2023-04-20T15:51:17.560Z,7.75
2023-04-20T15:53:21.110Z,7.45
2023-04-20T15:55:23.889Z,7.80
2023-04-20T15:57:27.966Z,9.15
2023-04-20T15:59:30.920Z,8.95
2023-04-20T16:01:34.567Z,8.48
2023-04-20T16:03:39.125Z,9.25
2023-04-20T16:05:41.974Z,8.82
2023-04-20T16:07:44.636Z,8.60
2023-04-20T16:09:47.308Z,9.07
2023-04-20T16:11:49.994Z,8.77
2023-04-20T16:13:56.417Z,9.85
2023-04-20T16:15:59.173Z,10.00
2023-04-20T16:18:04.757Z,9.27
2023-04-20T16:20:09.154Z,10.85
2023-04-20T16:22:12.335Z,11.32
2023-04-20T16:24:15.077Z,10.70
2023-04-20T16:26:17.876Z,11.00
2023-04-20T16:28:20.597Z,10.35
2023-04-20T16:30:24.682Z,10.80
2023-04-20T16:32:27.664Z,10.30
2023-04-20T16:34:31.505Z,9.68
2023-04-20T16:36:34.145Z,8.65
2023-04-20T16:38:36.823Z,9.57
2023-04-20T16:40:39.470Z,8.60
2023-04-20T16:42:42.073Z,9.75
2023-04-20T16:44:44.810Z,9.05
2023-04-20T16:46:51.334Z,9.50
2023-04-20T16:48:54.589Z,8.95
2023-04-20T16:50:57.220Z,8.65
2023-04-20T16:52:59.932Z,8.23
2023-04-20T16:55:02.675Z,8.25
2023-04-20T16:57:05.768Z,8.35
2023-04-20T16:59:08.549Z,9.07
2023-04-20T17:01:11.275Z,9.35
2023-04-20T17:03:15.725Z,9.73
2023-04-20T17:05:18.625Z,9.95
2023-04-20T17:07:21.324Z,9.88
2023-04-20T17:09:24.120Z,9.82
2023-04-20T17:11:26.737Z,9.23
2023-04-20T17:13:29.402Z,10.23
2023-04-20T17:15:32.267Z,9.88
2023-04-20T17:17:35.066Z,9.20
2023-04-20T17:19:40.562Z,9.77
2023-04-20T17:21:45.110Z,9.40
2023-04-20T17:23:47.946Z,9.13
2023-04-20T17:25:51.360Z,7.95
2023-04-20T17:27:54.072Z,8.00
2023-04-20T17:29:57.628Z,8.15
2023-04-20T17:32:00.371Z,8.48
2023-04-20T17:34:03.333Z,8.65
2023-04-20T17:36:07.711Z,8.75
2023-04-20T17:38:10.429Z,8.68
2023-04-20T17:40:13.475Z,8.23
2023-04-20T17:42:16.223Z,8.38
2023-04-20T17:44:19.069Z,8.73
2023-04-20T17:46:21.956Z,8.23
2023-04-20T17:48:24.620Z,8.52
2023-04-20T17:50:27.316Z,7.78
2023-04-20T17:52:31.352Z,9.05
2023-04-20T17:54:34.827Z,7.50
2023-04-20T17:56:37.563Z,7.78
2023-04-20T17:58:40.215Z,7.88
2023-04-20T18:00:43.064Z,7.70
2023-04-20T18:02:45.979Z,7.57
2023-04-20T18:04:48.865Z,7.65
2023-04-20T18:06:52.442Z,8.15
2023-04-20T18:08:57.109Z,8.18
2023-04-20T18:10:59.713Z,8.35
2023-04-20T18:13:02.413Z,8.85
2023-04-20T18:15:07.612Z,8.77
2023-04-20T18:17:11.082Z,8.05
2023-04-20T18:19:13.815Z,8.88
2023-04-20T18:21:16.555Z,8.43
2023-04-20T18:23:19.251Z,8.07
2023-04-20T18:25:23.324Z,8.40
2023-04-20T18:27:26.122Z,8.73
2023-04-20T18:29:29.826Z,8.25
2023-04-20T18:31:32.524Z,8.30
2023-04-20T18:33:35.760Z,8.75
2023-04-20T18:35:38.424Z,8.70
2023-04-20T18:37:41.117Z,8.73
2023-04-20T18:39:43.828Z,8.65
2023-04-20T18:41:47.969Z,9.02
2023-04-20T18:43:53.301Z,9.52
2023-04-20T18:45:56.083Z,10.77
2023-04-20T18:47:59.035Z,9.32
2023-04-20T18:50:01.811Z,8.82
2023-04-20T18:52:04.651Z,9.90
2023-04-20T18:54:07.480Z,9.20
2023-04-20T18:56:10.458Z,9.90
2023-04-20T18:58:14.589Z,8.63
2023-04-20T19:00:17.650Z,8.75
2023-04-20T19:02:20.472Z,9.23
2023-04-20T19:04:23.576Z,8.50
2023-04-20T19:06:27.958Z,8.68
2023-04-20T19:08:31.121Z,10.02
2023-04-20T19:10:33.776Z,10.07
2023-04-20T19:12:38.435Z,9.43
2023-04-20T19:14:42.466Z,9.73
2023-04-20T19:16:45.106Z,9.77
2023-04-20T19:18:49.238Z,9.30
2023-04-20T19:20:52.155Z,9.35
2023-04-20T19:22:58.014Z,9.77
2023-04-20T19:25:00.742Z,9.45
2023-04-20T19:27:03.397Z,9.75
2023-04-20T19:29:06.141Z,10.23
2023-04-20T19:31:11.023Z,17.98
2023-04-20T19:33:13.884Z,10.05
2023-04-20T19:35:16.624Z,14.18
2023-04-20T19:37:19.221Z,11.60
2023-04-20T19:39:22.003Z,16.92
2023-04-20T19:41:25.948Z,22.20
2023-04-20T19:43:28.643Z,13.88
2023-04-20T19:45:31.383Z,12.27
2023-04-20T19:47:35.686Z,11.05
2023-04-20T19:49:38.324Z,11.15
2023-04-20T19:51:41.020Z,11.35
2023-04-20T19:53:43.729Z,10.95
2023-04-20T19:55:46.501Z,12.95
2023-04-20T19:57:49.209Z,12.85
2023-04-20T19:59:52.030Z,11.55
2023-04-20T20:01:54.776Z,11.02
2023-04-20T20:03:59.010Z,11.00
2023-04-20T20:06:02.163Z,10.57
2023-04-20T20:08:04.939Z,10.80
2023-04-20T20:10:08.311Z,12.05
2023-04-20T20:12:12.315Z,11.75
2023-04-20T20:14:15.179Z,11.77
2023-04-20T20:16:18.243Z,11.95
2023-04-20T20:18:21.447Z,12.15
2023-04-20T20:20:26.911Z,12.23
2023-04-20T20:22:29.622Z,11.55
2023-04-20T20:24:32.311Z,11.27
2023-04-20T20:26:34.944Z,12.05
2023-04-20T20:28:37.622Z,10.70
2023-04-20T20:30:41.535Z,11.38
2023-04-20T20:32:44.246Z,11.25
2023-04-20T20:34:47.172Z,11.73
2023-04-20T20:36:51.314Z,11.05
2023-04-20T20:38:53.984Z,11.43
2023-04-20T20:40:56.635Z,11.32
2023-04-20T20:42:59.256Z,11.02
2023-04-20T20:45:02.008Z,10.95
2023-04-20T20:47:05.915Z,9.45
2023-04-20T20:49:08.836Z,9.70
2023-04-20T20:51:12.053Z,9.20
2023-04-20T20:53:17.517Z,9.35
2023-04-20T20:55:20.353Z,9.48
2023-04-20T20:57:23.036Z,8.95
2023-04-20T20:59:25.764Z,8.90
2023-04-20T21:01:28.475Z,8.68
2023-04-20T21:03:31.808Z,9.63
2023-04-20T21:05:35.850Z,9.45
2023-04-20T21:07:40.104Z,9.07
2023-04-20T21:09:44.190Z,9.00
2023-04-20T21:11:46.867Z,9.35
2023-04-20T21:13:49.543Z,9.50
2023-04-20T21:15:52.148Z,7.82
2023-04-20T21:17:54.842Z,8.50
2023-04-20T21:19:57.755Z,8.38
2023-04-20T21:22:00.517Z,9.02
2023-04-20T21:24:03.196Z,8.63
2023-04-20T21:26:07.216Z,9.75
2023-04-20T21:28:09.841Z,8.73
2023-04-20T21:30:13.510Z,9.02
2023-04-20T21:32:16.293Z,9.38
2023-04-20T21:34:18.990Z,8.70
2023-04-20T21:36:21.597Z,9.07
2023-04-20T21:38:24.242Z,9.20
2023-04-20T21:40:26.924Z,8.52
2023-04-20T21:42:30.889Z,8.40
2023-04-20T21:44:33.604Z,7.53
2023-04-20T21:46:36.376Z,8.20
2023-04-20T21:48:39.125Z,8.35
2023-04-20T21:50:41.735Z,8.30
2023-04-20T21:52:44.374Z,8.45
2023-04-20T21:54:47.008Z,8.32
2023-04-20T21:56:49.663Z,8.80
2023-04-20T21:58:53.640Z,8.50
2023-04-20T22:00:56.278Z,8.90
2023-04-20T22:02:59.122Z,9.30
2023-04-20T22:05:01.885Z,9.15
2023-04-20T22:07:04.685Z,9.70
2023-04-20T22:09:07.996Z,8.73
2023-04-20T22:11:10.717Z,8.80
2023-04-20T22:13:14.036Z,9.25
2023-04-20T22:15:18.589Z,9.23
2023-04-20T22:17:21.736Z,10.45
2023-04-20T22:19:24.497Z,8.77
2023-04-20T22:21:27.218Z,10.68
2023-04-20T22:23:29.922Z,9.75
2023-04-20T22:25:32.674Z,9.20
2023-04-20T22:27:36.817Z,9.85
2023-04-20T22:29:39.475Z,9.65
2023-04-20T22:31:43.667Z,9.93
2023-04-20T22:33:46.398Z,10.10
2023-04-20T22:35:49.078Z,10.70
2023-04-20T22:37:51.726Z,10.25
2023-04-20T22:39:54.425Z,9.55
2023-04-20T22:41:57.081Z,8.95
2023-04-20T22:43:59.821Z,9.85
2023-04-20T22:46:02.489Z,9.05
2023-04-20T22:48:07.054Z,8.18
2023-04-20T22:50:11.961Z,8.40
2023-04-20T22:52:14.634Z,7.47
2023-04-20T22:54:17.323Z,8.27
2023-04-20T22:56:19.943Z,7.88
2023-04-20T22:58:22.540Z,6.70
2023-04-20T23:00:25.176Z,8.32
2023-04-20T23:02:27.954Z,8.45
2023-04-20T23:04:32.449Z,7.70
2023-04-20T23:06:35.482Z,9.10
2023-04-20T23:08:39.665Z,8.98
2023-04-20T23:10:42.277Z,8.73
2023-04-20T23:12:46.794Z,9.30
2023-04-20T23:14:50.620Z,9.35
2023-04-20T23:16:53.451Z,8.95
2023-04-20T23:18:56.162Z,8.20
2023-04-20T23:21:00.217Z,8.07
2023-04-20T23:23:02.866Z,8.90
2023-04-20T23:25:06.128Z,7.45
2023-04-20T23:27:08.789Z,8.50
2023-04-20T23:29:11.454Z,8.13
2023-04-20T23:31:14.189Z,9.23
2023-04-20T23:33:16.870Z,8.48
2023-04-20T23:35:20.331Z,8.50
2023-04-20T23:37:24.390Z,10.00
2023-04-20T23:39:27.015Z,10.55
2023-04-20T23:41:29.641Z,8.95
2023-04-20T23:43:32.257Z,9.63
2023-04-20T23:45:34.957Z,8.75
2023-04-20T23:47:37.700Z,8.35
2023-04-20T23:49:40.371Z,9.00
2023-04-20T23:51:43.065Z,9.20
2023-04-20T23:53:47.089Z,9.38
2023-04-20T23:55:52.002Z,9.63
2023-04-20T23:57:54.629Z,8.70
2023-04-20T23:59:57.254Z,9.82
